createdAt,value
2023-02-27T00:03:32.684Z,101128.28
2023-02-27T00:08:34.416Z,101122.81
2023-02-27T00:13:36.309Z,101130.31
2023-02-27T00:18:37.868Z,101121.59
2023-02-27T00:23:39.454Z,101129.16
2023-02-27T00:28:41.031Z,101125.72
2023-02-27T00:33:42.593Z,101123.09
2023-02-27T00:38:44.146Z,101128.50
2023-02-27T00:43:45.764Z,101126.28
2023-02-27T00:48:47.315Z,101123.19
2023-02-27T00:53:48.911Z,101134.78
2023-02-27T00:58:50.529Z,101131.91
2023-02-27T01:03:52.123Z,101128.75
2023-02-27T01:08:53.735Z,101134.41
2023-02-27T01:13:55.387Z,101135.28
2023-02-27T01:18:57.063Z,101130.34
2023-02-27T01:23:58.776Z,101123.09
2023-02-27T01:29:00.386Z,101119.50
2023-02-27T01:34:02.092Z,101117.44
2023-02-27T01:39:03.796Z,101119.25
2023-02-27T01:44:10.860Z,101123.16
2023-02-27T01:49:22.284Z,101115.84
2023-02-27T01:54:26.310Z,101122.59
2023-02-27T01:59:28.102Z,101126.56
2023-02-27T02:04:35.442Z,101124.19
2023-02-27T02:09:41.001Z,101141.19
2023-02-27T02:14:42.737Z,101134.22
2023-02-27T02:19:54.592Z,101143.63
2023-02-27T02:25:08.030Z,101154.78
2023-02-27T02:30:18.336Z,101152.81
2023-02-27T02:35:38.779Z,101155.63
2023-02-27T02:40:46.126Z,101156.22
2023-02-27T02:45:51.554Z,101155.81
2023-02-27T02:51:01.977Z,101156.97
2023-02-27T02:56:34.323Z,101163.47
2023-02-27T03:01:59.647Z,101173.03
2023-02-27T03:07:13.106Z,101166.34
2023-02-27T03:12:18.732Z,101174.97
2023-02-27T03:17:27.216Z,101164.88
2023-02-27T03:22:32.619Z,101174.59
2023-02-27T03:27:38.737Z,101181.50
2023-02-27T03:32:42.590Z,101176.00
2023-02-27T03:37:44.673Z,101187.34
2023-02-27T03:42:53.614Z,101191.63
2023-02-27T03:48:00.992Z,101194.50
2023-02-27T03:53:16.189Z,101192.69
2023-02-27T03:58:17.812Z,101191.50
2023-02-27T04:03:20.997Z,101185.63
2023-02-27T04:08:25.555Z,101191.16
2023-02-27T04:13:51.720Z,101194.72
2023-02-27T04:19:08.258Z,101199.03
2023-02-27T04:24:38.834Z,101199.59
2023-02-27T04:30:11.411Z,101206.47
2023-02-27T04:35:21.213Z,101194.69
2023-02-27T04:40:34.291Z,101206.06
2023-02-27T04:45:38.460Z,101204.00
2023-02-27T04:50:47.841Z,101215.81
2023-02-27T04:55:56.290Z,101230.38
2023-02-27T05:01:09.310Z,101220.94
2023-02-27T05:06:11.628Z,101225.22
2023-02-27T05:11:36.337Z,101244.84
2023-02-27T05:16:56.479Z,101253.91
2023-02-27T05:22:16.026Z,101255.00
2023-02-27T05:27:24.802Z,101249.56
2023-02-27T05:32:32.068Z,101245.38
2023-02-27T05:37:45.234Z,101247.13
2023-02-27T05:42:56.370Z,101261.19
2023-02-27T05:48:18.421Z,101265.53
2023-02-27T05:53:22.157Z,101269.31
2023-02-27T05:58:36.922Z,101280.38
2023-02-27T06:03:40.256Z,101279.25
2023-02-27T06:08:42.211Z,101294.47
2023-02-27T06:13:43.787Z,101299.00
2023-02-27T06:18:45.399Z,101304.28
2023-02-27T06:23:46.980Z,101298.13
2023-02-27T06:28:48.544Z,101305.75
2023-02-27T06:33:50.366Z,101303.88
2023-02-27T06:38:51.937Z,101311.91
2023-02-27T06:43:53.543Z,101320.47
2023-02-27T06:48:55.108Z,101306.75
2023-02-27T06:53:56.656Z,101314.22
2023-02-27T06:58:59.549Z,101313.28
2023-02-27T07:04:01.273Z,101307.22
2023-02-27T07:09:06.598Z,101310.81
2023-02-27T07:14:08.750Z,101306.44
2023-02-27T07:19:10.658Z,101312.97
2023-02-27T07:24:12.299Z,101309.13
2023-02-27T07:29:14.934Z,101307.56
2023-02-27T07:34:16.692Z,101317.09
2023-02-27T07:39:19.356Z,101322.41
2023-02-27T07:44:20.929Z,101322.34
2023-02-27T07:49:22.560Z,101321.75
2023-02-27T07:54:24.243Z,101316.91
2023-02-27T07:59:25.869Z,101310.94
2023-02-27T08:04:27.506Z,101321.31
2023-02-27T08:09:30.743Z,101333.75
2023-02-27T08:14:32.394Z,101329.09
2023-02-27T08:19:34.057Z,101343.19
2023-02-27T08:24:35.601Z,101342.59
2023-02-27T08:29:37.134Z,101348.75
2023-02-27T08:34:38.785Z,101354.78
2023-02-27T08:39:40.335Z,101362.41
2023-02-27T08:44:41.914Z,101363.06
2023-02-27T08:49:43.540Z,101356.47
2023-02-27T08:54:45.477Z,101364.81
2023-02-27T08:59:47.145Z,101368.81
2023-02-27T09:04:48.746Z,101368.50
2023-02-27T09:09:50.590Z,101371.06
2023-02-27T09:14:52.160Z,101372.09
2023-02-27T09:19:55.396Z,101383.28
2023-02-27T09:24:58.601Z,101382.41
2023-02-27T09:30:00.176Z,101385.22
2023-02-27T09:35:01.723Z,101385.84
2023-02-27T09:40:05.945Z,101386.34
2023-02-27T09:45:08.395Z,101383.78
2023-02-27T09:50:28.580Z,101394.28
2023-02-27T09:55:33.828Z,101387.91
2023-02-27T10:00:35.311Z,101385.56
2023-02-27T10:06:14.857Z,101386.75
2023-02-27T10:11:22.649Z,101389.41
2023-02-27T10:16:25.635Z,101396.53
2023-02-27T10:21:36.048Z,101406.84
2023-02-27T10:26:40.694Z,101403.41
2023-02-27T10:31:42.800Z,101405.69
2023-02-27T10:36:46.669Z,101405.00
2023-02-27T10:41:48.846Z,101407.19
2023-02-27T10:46:51.986Z,101407.41
2023-02-27T10:52:12.279Z,101407.50
2023-02-27T10:57:42.991Z,101403.41
2023-02-27T11:02:48.996Z,101391.72
2023-02-27T11:07:51.126Z,101390.22
2023-02-27T11:13:21.459Z,101384.28
2023-02-27T11:18:31.274Z,101387.69
2023-02-27T11:23:33.857Z,101390.03
2023-02-27T11:28:35.433Z,101386.59
2023-02-27T11:33:39.558Z,101386.28
2023-02-27T11:38:41.179Z,101383.47
2023-02-27T11:43:52.708Z,101378.19
2023-02-27T11:49:07.595Z,101369.91
2023-02-27T11:54:38.816Z,101373.22
2023-02-27T11:59:44.783Z,101366.84
2023-02-27T12:04:51.396Z,101357.63
2023-02-27T12:10:06.720Z,101358.34
2023-02-27T12:15:26.507Z,101361.47
2023-02-27T12:20:34.043Z,101359.06
2023-02-27T12:25:43.847Z,101360.78
2023-02-27T12:30:54.327Z,101351.38
2023-02-27T12:36:01.472Z,101358.66
2023-02-27T12:41:37.035Z,101360.75
2023-02-27T12:46:39.544Z,101362.59
2023-02-27T12:51:53.027Z,101363.22
2023-02-27T12:57:09.599Z,101354.69
2023-02-27T13:02:29.270Z,101357.09
2023-02-27T13:07:46.103Z,101343.88
2023-02-27T13:12:52.694Z,101352.59
2023-02-27T13:18:01.948Z,101350.06
2023-02-27T13:23:12.410Z,101355.69
2023-02-27T13:28:17.769Z,101347.13
2023-02-27T13:33:29.651Z,101359.78
2023-02-27T13:38:42.708Z,101353.19
2023-02-27T13:43:52.197Z,101346.47
2023-02-27T13:49:04.118Z,101352.31
2023-02-27T13:54:09.516Z,101350.75
2023-02-27T13:59:19.934Z,101352.19
2023-02-27T14:04:24.971Z,101350.22
2023-02-27T14:09:33.481Z,101355.09
2023-02-27T14:14:38.871Z,101359.09
2023-02-27T14:19:40.394Z,101359.59
2023-02-27T14:25:01.711Z,101353.66
2023-02-27T14:30:07.915Z,101347.94
2023-02-27T14:35:15.137Z,101363.50
2023-02-27T14:40:32.450Z,101354.03
2023-02-27T14:45:34.075Z,101366.59
2023-02-27T14:50:39.197Z,101366.09
2023-02-27T14:55:40.801Z,101363.66
2023-02-27T15:01:17.951Z,101378.00
2023-02-27T15:06:20.704Z,101389.53
2023-02-27T15:11:23.304Z,101390.66
2023-02-27T15:16:55.863Z,101405.13
2023-02-27T15:21:59.698Z,101403.66
2023-02-27T15:27:04.474Z,101407.63
2023-02-27T15:32:07.397Z,101419.53
2023-02-27T15:37:09.139Z,101422.72
2023-02-27T15:42:11.690Z,101424.81
2023-02-27T15:47:19.052Z,101427.69
2023-02-27T15:52:26.213Z,101425.09
2023-02-27T15:57:27.872Z,101407.59
2023-02-27T16:02:33.917Z,101429.38
2023-02-27T16:07:40.762Z,101423.69
2023-02-27T16:12:43.100Z,101434.69
2023-02-27T16:18:07.840Z,101439.06
2023-02-27T16:23:29.729Z,101447.84
2023-02-27T16:28:59.979Z,101455.34
2023-02-27T16:34:26.095Z,101454.22
2023-02-27T16:39:30.532Z,101459.56
2023-02-27T16:44:32.148Z,101459.78
2023-02-27T16:49:33.783Z,101459.69
2023-02-27T16:54:35.446Z,101466.84
2023-02-27T16:59:41.992Z,101471.00
2023-02-27T17:04:44.483Z,101473.28
2023-02-27T17:09:46.779Z,101475.66
2023-02-27T17:14:48.523Z,101476.88
2023-02-27T17:19:50.170Z,101485.63
2023-02-27T17:24:51.768Z,101489.72
2023-02-27T17:29:53.383Z,101490.22
2023-02-27T17:34:55.769Z,101490.22
2023-02-27T17:39:57.384Z,101499.81
2023-02-27T17:45:01.254Z,101492.50
2023-02-27T17:50:04.177Z,101496.13
2023-02-27T17:55:08.478Z,101495.00
2023-02-27T18:00:16.177Z,101498.41
2023-02-27T18:05:18.401Z,101507.69
2023-02-27T18:10:20.050Z,101507.88
2023-02-27T18:15:21.647Z,101508.97
2023-02-27T18:20:23.643Z,101512.66
2023-02-27T18:25:26.142Z,101502.28
2023-02-27T18:30:30.883Z,101510.22
2023-02-27T18:35:32.696Z,101507.88
2023-02-27T18:40:34.680Z,101505.22
2023-02-27T18:45:37.218Z,101505.31
2023-02-27T18:50:39.003Z,101502.09
2023-02-27T18:55:40.767Z,101505.91
2023-02-27T19:00:42.356Z,101510.41
2023-02-27T19:05:44.018Z,101513.22
2023-02-27T19:10:45.726Z,101516.69
2023-02-27T19:15:47.337Z,101515.66
2023-02-27T19:20:48.975Z,101521.81
2023-02-27T19:25:58.413Z,101525.31
2023-02-27T19:31:00.050Z,101518.97
2023-02-27T19:36:14.968Z,101524.91
2023-02-27T19:41:16.953Z,101530.28
2023-02-27T19:46:27.510Z,101528.63
2023-02-27T19:51:29.517Z,101535.34
2023-02-27T19:56:31.603Z,101532.47
2023-02-27T20:01:37.036Z,101533.66
2023-02-27T20:06:44.411Z,101540.78
2023-02-27T20:11:47.885Z,101539.19
2023-02-27T20:16:49.546Z,101541.44
2023-02-27T20:21:52.116Z,101548.03
2023-02-27T20:26:54.195Z,101547.47
2023-02-27T20:31:57.316Z,101539.38
2023-02-27T20:37:00.413Z,101548.53
2023-02-27T20:42:02.161Z,101539.38
2023-02-27T20:47:03.857Z,101550.63
2023-02-27T20:52:05.586Z,101544.06
2023-02-27T20:57:07.155Z,101544.38
2023-02-27T21:02:10.158Z,101538.78
2023-02-27T21:07:13.493Z,101539.19
2023-02-27T21:12:15.472Z,101535.56
2023-02-27T21:17:17.171Z,101546.53
2023-02-27T21:22:18.725Z,101545.97
2023-02-27T21:27:21.362Z,101551.22
2023-02-27T21:32:23.040Z,101561.00
2023-02-27T21:37:24.872Z,101554.47
2023-02-27T21:42:26.442Z,101547.25
2023-02-27T21:47:28.801Z,101551.75
2023-02-27T21:52:31.526Z,101554.53
2023-02-27T21:57:33.809Z,101547.00
2023-02-27T22:02:35.412Z,101554.06
2023-02-27T22:07:37.442Z,101553.25
2023-02-27T22:12:39.095Z,101563.81
2023-02-27T22:17:40.761Z,101560.88
2023-02-27T22:22:42.374Z,101562.06
2023-02-27T22:27:43.951Z,101569.56
2023-02-27T22:32:45.554Z,101564.84
2023-02-27T22:37:47.216Z,101568.25
2023-02-27T22:42:48.860Z,101565.50
2023-02-27T22:47:50.441Z,101567.84
2023-02-27T22:52:52.056Z,101564.94
2023-02-27T22:57:54.203Z,101558.22
2023-02-27T23:02:55.784Z,101560.53
2023-02-27T23:07:57.433Z,101564.22
2023-02-27T23:12:59.018Z,101567.75
2023-02-27T23:18:00.588Z,101564.91
2023-02-27T23:23:02.161Z,101566.69
2023-02-27T23:28:05.028Z,101563.81
2023-02-27T23:33:06.598Z,101571.50
2023-02-27T23:38:08.259Z,101574.19
2023-02-27T23:43:09.910Z,101577.44
2023-02-27T23:48:11.586Z,101574.75
2023-02-27T23:53:13.854Z,101574.94
2023-02-27T23:58:15.464Z,101579.06
